Terminal Aerodrome Forecast
Issued by NWS

Home | Current Version | Previous Version | Text Only | Print | Product List | Glossary On
Versions: 1 2 3 4 5 6 7 8 9 10 11 12 13 14 15 16 17
000
FTUS43 KDLH 160530
TAFHYR
TAF
KHYR 160530Z 1606/1706 32009KT P6SM SCT250
     FM161100 28005KT P6SM SKC
     FM161900 24010G16KT P6SM FEW250
     FM170000 20007KT P6SM FEW250=

USA.gov is the U.S. government's official web portal to all federal, state and local government web resources and services.